Time;durP1;ratioP1;P1;durP2;ratioP2;P2;SDS_P1;SDS_P2;PMS_P1;PMS_P2;Temp;Humidity;BMP_temperature;BMP_pressure;BME280_temperature;BME280_humidity;BME280_pressure;Samples;Min_cycle;Max_cycle;Signal;HPM_P1;HPM_P2
2022/03/26 00:00:36;;;;;;;35.38;16.52;;;;;;;24.58;14.15;99170.50;5103148;28;20512;-77
2022/03/26 00:03:03;;;;;;;35.35;15.35;;;;;;;24.49;14.52;99173.00;5098853;28;20032;-77
2022/03/26 00:05:29;;;;;;;34.67;16.73;;;;;;;24.15;14.95;99181.22;5105109;28;20032;-77
2022/03/26 00:07:55;;;;;;;33.63;16.63;;;;;;;24.08;14.84;99174.81;5105181;28;20027;-77
2022/03/26 00:10:21;;;;;;;39.97;17.83;;;;;;;24.12;15.05;99175.59;5097843;28;20067;-77
2022/03/26 00:12:48;;;;;;;41.90;19.10;;;;;;;23.94;15.07;99170.81;5101028;28;20515;-76
2022/03/26 00:15:14;;;;;;;35.10;16.60;;;;;;;24.09;14.79;99170.78;5099628;28;20034;-77
2022/03/26 00:17:40;;;;;;;44.55;17.67;;;;;;;23.94;14.92;99170.06;5102018;28;20049;-76
2022/03/26 00:20:07;;;;;;;39.05;16.08;;;;;;;24.08;14.85;99169.22;5098006;28;20020;-76
2022/03/26 00:22:33;;;;;;;42.67;16.48;;;;;;;24.26;14.74;99161.50;5091781;28;20431;-77
2022/03/26 00:25:00;;;;;;;38.60;16.20;;;;;;;24.31;14.63;99166.69;5102034;28;20044;-77
2022/03/26 00:27:26;;;;;;;34.10;16.30;;;;;;;24.38;14.50;99161.03;5093968;28;20030;-76
2022/03/26 00:29:52;;;;;;;38.17;17.27;;;;;;;24.42;14.60;99156.19;5095367;28;20039;-76
2022/03/26 00:32:19;;;;;;;32.88;16.20;;;;;;;24.43;14.18;99155.00;5093981;28;20032;-77
2022/03/26 00:34:45;;;;;;;35.63;15.75;;;;;;;24.57;14.12;99155.69;5094221;28;20036;-76
2022/03/26 00:37:11;;;;;;;41.13;18.23;;;;;;;24.46;14.31;99154.94;5095050;28;20034;-76
2022/03/26 00:39:39;;;;;;;33.00;16.17;;;;;;;24.23;14.48;99157.50;5098162;28;20048;-76
2022/03/26 00:42:08;;;;;;;37.40;15.77;;;;;;;24.06;14.83;99155.59;5104689;28;20110;-76
2022/03/26 00:44:35;;;;;;;32.55;15.95;;;;;;;24.00;14.80;99151.56;5102188;28;20032;-77
2022/03/26 00:47:01;;;;;;;33.45;14.88;;;;;;;23.97;14.86;99144.78;5101844;28;20055;-76
2022/03/26 00:49:28;;;;;;;32.67;16.00;;;;;;;24.10;14.86;99149.97;5099082;28;20040;-77
2022/03/26 00:51:54;;;;;;;34.95;15.57;;;;;;;24.14;14.92;99159.16;5108256;28;20123;-76
2022/03/26 00:54:20;;;;;;;38.53;16.45;;;;;;;24.21;14.74;99151.50;5107435;28;20431;-76
2022/03/26 00:56:46;;;;;;;33.33;16.00;;;;;;;24.24;14.68;99156.31;5096676;28;20032;-77
2022/03/26 00:59:12;;;;;;;31.63;15.75;;;;;;;23.55;15.31;99163.78;5101555;28;20397;-77
2022/03/26 01:01:39;;;;;;;38.67;15.95;;;;;;;23.46;15.38;99155.78;5096018;28;20048;-77
2022/03/26 01:04:05;;;;;;;35.92;15.25;;;;;;;23.68;14.91;99154.53;5100274;28;20043;-76
2022/03/26 01:06:31;;;;;;;36.30;16.52;;;;;;;24.09;14.54;99151.97;5094168;28;20024;-76
2022/03/26 01:08:57;;;;;;;35.45;16.90;;;;;;;24.28;14.52;99150.66;5102220;28;20582;-76
2022/03/26 01:11:23;;;;;;;40.38;16.83;;;;;;;24.30;14.28;99146.22;5098542;28;20024;-76
2022/03/26 01:13:53;;;;;;;33.55;15.60;;;;;;;24.30;14.17;99148.22;5098382;28;20042;-76
2022/03/26 01:16:19;;;;;;;33.78;15.23;;;;;;;24.39;14.14;99157.81;5105814;28;20032;-76
2022/03/26 01:18:45;;;;;;;35.53;17.00;;;;;;;24.40;14.06;99148.19;5102296;28;20046;-76
2022/03/26 01:21:11;;;;;;;38.70;18.48;;;;;;;24.50;13.80;99141.72;5108885;28;20035;-77
2022/03/26 01:23:37;;;;;;;37.80;16.83;;;;;;;24.46;13.85;99145.72;5108854;28;20055;-76
2022/03/26 01:26:04;;;;;;;34.78;17.65;;;;;;;23.96;14.32;99145.19;5109925;28;20040;-76
2022/03/26 01:28:30;;;;;;;30.35;14.57;;;;;;;23.73;14.64;99142.88;5105617;28;20031;-76
2022/03/26 01:30:59;;;;;;;35.58;15.52;;;;;;;23.70;14.80;99137.28;5111249;28;20060;-76
2022/03/26 01:33:25;;;;;;;38.38;14.32;;;;;;;23.77;14.82;99140.06;5111854;28;20028;-76
2022/03/26 01:35:51;;;;;;;32.33;13.82;;;;;;;23.78;14.78;99139.63;5110388;28;20023;-76
2022/03/26 01:38:17;;;;;;;28.52;13.57;;;;;;;23.53;15.10;99147.34;5109922;28;20045;-76
2022/03/26 01:40:44;;;;;;;31.63;13.50;;;;;;;23.41;14.98;99144.97;5111089;28;20036;-76
2022/03/26 01:43:10;;;;;;;29.15;12.32;;;;;;;23.28;15.20;99152.19;5106018;28;20023;-76
2022/03/26 01:45:36;;;;;;;33.85;15.23;;;;;;;23.70;14.54;99143.69;5100265;28;20111;-76
2022/03/26 01:48:02;;;;;;;28.75;14.68;;;;;;;23.71;14.62;99133.28;5105828;28;20036;-76
2022/03/26 01:50:29;;;;;;;31.55;14.35;;;;;;;23.70;14.61;99140.09;5110876;28;20134;-76
2022/03/26 01:52:57;;;;;;;28.55;12.57;;;;;;;23.62;14.76;99146.94;5107289;28;20028;-75
2022/03/26 01:55:25;;;;;;;33.25;13.15;;;;;;;23.38;15.06;99150.59;5108938;28;20438;-76
2022/03/26 01:57:53;;;;;;;26.67;12.82;;;;;;;23.19;15.47;99146.19;5109759;28;20118;-76
2022/03/26 02:00:20;;;;;;;28.52;13.20;;;;;;;23.49;14.88;99140.94;5105356;28;20036;-76
2022/03/26 02:02:46;;;;;;;30.38;13.68;;;;;;;23.56;14.95;99140.13;5099576;28;20370;-76
2022/03/26 02:05:13;;;;;;;30.17;13.40;;;;;;;23.73;14.69;99137.28;5105770;28;20039;-75
2022/03/26 02:07:41;;;;;;;33.75;14.02;;;;;;;23.73;14.83;99139.28;5103293;28;20058;-76
2022/03/26 02:10:09;;;;;;;31.38;13.80;;;;;;;23.73;14.53;99140.09;5108288;28;20032;-76
2022/03/26 02:12:36;;;;;;;27.00;13.55;;;;;;;23.69;14.63;99135.66;5098664;28;20028;-76
2022/03/26 02:15:04;;;;;;;30.13;13.30;;;;;;;23.57;14.66;99141.75;5109084;28;20044;-76
2022/03/26 02:17:31;;;;;;;28.35;12.68;;;;;;;23.58;14.85;99146.13;5101891;28;20024;-76
2022/03/26 02:19:58;;;;;;;30.88;14.52;;;;;;;23.77;14.61;99142.84;5110344;27;20380;-76
2022/03/26 02:22:26;;;;;;;30.75;13.25;;;;;;;23.96;14.42;99151.59;5101592;28;20023;-76
2022/03/26 02:24:53;;;;;;;29.30;14.15;;;;;;;24.11;14.25;99148.75;5098820;28;20035;-76
2022/03/26 02:27:23;;;;;;;33.30;14.90;;;;;;;24.11;14.44;99145.97;5107803;27;20111;-76
2022/03/26 02:29:50;;;;;;;29.33;14.98;;;;;;;23.75;14.37;99154.50;5103390;27;21421;-76
2022/03/26 02:32:19;;;;;;;26.55;12.50;;;;;;;23.87;14.13;99148.44;5101377;27;20438;-76
2022/03/26 02:34:47;;;;;;;34.00;14.52;;;;;;;24.09;14.01;99143.53;5100702;28;20119;-76
2022/03/26 02:37:13;;;;;;;32.88;13.68;;;;;;;24.21;13.90;99145.09;5104873;28;20027;-76
2022/03/26 02:39:39;;;;;;;33.33;14.27;;;;;;;24.04;14.02;99152.34;5099238;27;20036;-76
2022/03/26 02:42:05;;;;;;;29.80;13.68;;;;;;;23.56;14.60;99143.75;5104669;28;20032;-76
2022/03/26 02:44:31;;;;;;;26.80;12.35;;;;;;;23.37;14.91;99149.78;5109523;28;20028;-76
2022/03/26 02:46:57;;;;;;;34.83;14.45;;;;;;;23.30;14.78;99152.56;5105094;28;20031;-76
2022/03/26 02:49:23;;;;;;;28.52;12.95;;;;;;;23.28;15.28;99154.97;5105060;28;20062;-76
2022/03/26 02:51:49;;;;;;;30.42;13.50;;;;;;;23.29;15.25;99151.00;5103787;27;20062;-75
2022/03/26 02:54:18;;;;;;;27.98;13.13;;;;;;;22.79;15.42;99143.81;5101795;27;20050;-76
2022/03/26 02:56:52;;;;;;;35.15;14.70;;;;;;;22.78;15.14;99142.22;5105817;27;20369;-76
2022/03/26 02:59:18;;;;;;;31.30;14.55;;;;;;;22.98;15.14;99144.22;5103391;27;20532;-75
2022/03/26 03:01:45;;;;;;;28.42;13.27;;;;;;;23.12;15.13;99146.19;5103441;28;20040;-75
2022/03/26 03:04:11;;;;;;;24.20;12.05;;;;;;;23.05;14.85;99137.81;5108917;28;20107;-76
2022/03/26 03:06:38;;;;;;;30.15;14.30;;;;;;;23.23;14.95;99142.19;5100815;27;20030;-75
2022/03/26 03:09:06;;;;;;;24.77;12.05;;;;;;;23.36;14.77;99137.00;5102978;28;20495;-76
2022/03/26 03:11:33;;;;;;;30.92;13.10;;;;;;;23.18;15.09;99136.97;5102337;27;20031;-76
2022/03/26 03:14:00;;;;;;;20.20;11.13;;;;;;;23.00;15.06;99141.81;5098337;27;20118;-76
2022/03/26 03:16:26;;;;;;;25.10;11.90;;;;;;;22.96;15.10;99129.81;5104511;27;20036;-76
2022/03/26 03:18:53;;;;;;;30.58;13.68;;;;;;;22.90;15.11;99136.19;5100169;28;20038;-75
2022/03/26 03:21:19;;;;;;;30.33;13.95;;;;;;;22.81;15.13;99133.81;5103710;27;20126;-76
2022/03/26 03:23:45;;;;;;;31.40;14.00;;;;;;;22.94;15.24;99129.38;5097037;27;20062;-76
2022/03/26 03:26:11;;;;;;;33.67;13.82;;;;;;;23.10;14.85;99137.41;5100099;27;20028;-76
2022/03/26 03:28:38;;;;;;;29.23;14.40;;;;;;;23.14;14.65;99132.59;5095346;28;20492;-75
2022/03/26 03:31:04;;;;;;;26.00;13.20;;;;;;;23.21;14.44;99129.78;5097655;27;20038;-76
2022/03/26 03:33:30;;;;;;;30.50;13.35;;;;;;;23.22;14.65;99129.34;5097856;27;20062;-75
2022/03/26 03:35:57;;;;;;;37.92;15.32;;;;;;;23.17;14.75;99129.00;5104719;27;20027;-76
2022/03/26 03:38:24;;;;;;;34.97;14.68;;;;;;;23.21;14.56;99129.78;5105762;28;20043;-76
2022/03/26 03:40:50;;;;;;;34.67;14.27;;;;;;;23.05;14.86;99144.22;5096604;27;20534;-75
2022/03/26 03:43:17;;;;;;;30.10;13.52;;;;;;;22.93;15.18;99127.81;5095560;27;20039;-76
2022/03/26 03:45:44;;;;;;;30.77;13.50;;;;;;;22.93;15.19;99129.81;5093380;27;20111;-76
2022/03/26 03:48:10;;;;;;;28.35;12.55;;;;;;;22.87;14.86;99123.78;5096826;27;20077;-75
2022/03/26 03:50:36;;;;;;;26.20;13.00;;;;;;;22.92;14.73;99125.41;5097372;28;20052;-76
2022/03/26 03:53:03;;;;;;;27.50;12.13;;;;;;;22.90;14.83;99125.81;5105429;27;20063;-76
2022/03/26 03:55:29;;;;;;;25.30;12.45;;;;;;;22.85;14.92;99117.81;5100101;28;20028;-76
2022/03/26 03:57:56;;;;;;;31.48;13.90;;;;;;;23.22;14.40;99120.19;5098253;27;20035;-75
2022/03/26 04:00:22;;;;;;;28.50;12.77;;;;;;;23.34;14.41;99119.72;5102236;28;20476;-75
2022/03/26 04:02:48;;;;;;;26.35;12.07;;;;;;;23.43;14.28;99113.75;5107572;28;22579;-76
2022/03/26 04:05:15;;;;;;;31.27;13.43;;;;;;;23.07;14.82;99118.59;5092545;28;20111;-75
2022/03/26 04:07:42;;;;;;;29.70;12.13;;;;;;;22.76;14.75;99119.41;5101203;28;20036;-75
2022/03/26 04:10:10;;;;;;;25.27;12.02;;;;;;;22.86;15.04;99113.81;5106743;28;20060;-76
2022/03/26 04:12:38;;;;;;;26.38;12.75;;;;;;;23.23;14.55;99119.75;5099935;28;20027;-75
2022/03/26 04:15:08;;;;;;;24.85;12.13;;;;;;;23.29;14.56;99122.97;5101456;28;20027;-76
2022/03/26 04:17:35;;;;;;;27.33;12.45;;;;;;;23.56;14.19;99107.28;5108727;28;20373;-76
2022/03/26 04:20:09;;;;;;;32.70;12.45;;;;;;;23.64;14.06;99108.84;5104380;28;20051;-76
2022/03/26 04:22:36;;;;;;;27.85;13.20;;;;;;;23.48;14.01;99105.72;5093481;28;20382;-75
2022/03/26 04:25:03;;;;;;;26.98;12.93;;;;;;;23.42;14.26;99112.94;5096067;28;20496;-76
2022/03/26 04:27:29;;;;;;;30.27;13.05;;;;;;;23.48;14.27;99104.94;5099879;28;20089;-75
2022/03/26 04:29:55;;;;;;;28.15;13.15;;;;;;;23.46;14.13;99116.53;5103207;28;20043;-76
2022/03/26 04:32:22;;;;;;;28.67;12.23;;;;;;;23.32;14.25;99117.34;5097731;28;20028;-75
2022/03/26 04:34:48;;;;;;;28.95;12.98;;;;;;;23.09;14.63;99116.19;5100612;28;20154;-76
2022/03/26 04:37:15;;;;;;;28.10;12.57;;;;;;;22.87;15.03;99112.59;5105610;28;20031;-76
2022/03/26 04:39:41;;;;;;;29.35;13.32;;;;;;;22.76;15.40;99108.19;5107065;28;20069;-75
2022/03/26 04:42:08;;;;;;;28.55;13.45;;;;;;;22.93;15.18;99110.19;5102812;28;20111;-76
2022/03/26 04:44:34;;;;;;;32.58;13.30;;;;;;;22.85;15.30;99111.41;5096875;28;20082;-76
2022/03/26 04:47:01;;;;;;;27.52;12.68;;;;;;;22.75;14.92;99109.41;5104987;28;20054;-76
2022/03/26 04:49:27;;;;;;;26.27;12.75;;;;;;;22.90;15.41;99116.59;5102112;28;20037;-76
2022/03/26 04:51:53;;;;;;;27.70;12.25;;;;;;;23.08;14.69;99117.41;5107780;28;20071;-76
2022/03/26 04:54:19;;;;;;;31.80;13.95;;;;;;;23.14;14.79;99115.78;5100591;28;20068;-76
2022/03/26 04:56:45;;;;;;;28.45;13.82;;;;;;;23.31;14.70;99112.94;5099932;28;20027;-76
2022/03/26 04:59:12;;;;;;;30.02;12.32;;;;;;;23.44;14.73;99118.13;5106970;28;20125;-76
2022/03/26 05:01:38;;;;;;;21.70;11.02;;;;;;;23.15;15.05;99108.97;5104823;28;20047;-76
2022/03/26 05:04:04;;;;;;;28.55;13.23;;;;;;;23.40;14.91;99115.34;5104571;28;20035;-76
2022/03/26 05:06:30;;;;;;;28.50;13.13;;;;;;;23.44;14.76;99118.13;5106418;28;20028;-75
2022/03/26 05:08:56;;;;;;;29.17;13.20;;;;;;;23.40;14.96;99120.97;5108479;28;20031;-76
2022/03/26 05:11:22;;;;;;;29.77;13.90;;;;;;;23.46;14.96;99127.75;5099733;28;20104;-76
2022/03/26 05:13:49;;;;;;;29.90;13.30;;;;;;;23.59;15.11;99116.91;5106097;28;20115;-76
2022/03/26 05:16:15;;;;;;;31.13;14.45;;;;;;;23.87;14.74;99119.59;5108267;28;20023;-76
2022/03/26 05:18:41;;;;;;;37.85;14.68;;;;;;;23.97;14.46;99113.09;5102320;28;20548;-76
2022/03/26 05:21:08;;;;;;;25.83;13.00;;;;;;;23.98;14.61;99114.72;5107344;28;20370;-76
2022/03/26 05:23:35;;;;;;;28.63;12.75;;;;;;;24.11;14.80;99104.66;5109807;28;20111;-76
2022/03/26 05:26:02;;;;;;;21.38;11.07;;;;;;;24.51;14.30;99106.00;5106068;28;20024;-76
2022/03/26 05:28:28;;;;;;;26.92;11.27;;;;;;;24.60;14.66;99111.94;5106188;28;20035;-75
2022/03/26 05:30:54;;;;;;;23.63;13.07;;;;;;;24.54;14.66;99111.59;5105993;28;20021;-76
2022/03/26 05:33:20;;;;;;;27.77;13.43;;;;;;;24.68;14.79;99122.72;5107252;28;20455;-76
2022/03/26 05:35:46;;;;;;;25.98;14.00;;;;;;;24.89;14.69;99101.28;5107995;28;20027;-76
2022/03/26 05:38:13;;;;;;;33.42;16.42;;;;;;;25.07;14.40;99101.91;5103941;28;20084;-76
2022/03/26 05:40:39;;;;;;;27.38;13.85;;;;;;;25.11;14.75;99094.28;5101083;28;20044;-76
2022/03/26 05:43:06;;;;;;;28.98;13.23;;;;;;;25.38;14.59;99095.19;5107898;28;20388;-76
2022/03/26 05:45:32;;;;;;;23.40;10.88;;;;;;;24.89;15.05;99101.28;5101505;28;20061;-76
2022/03/26 05:48:01;;;;;;;24.40;12.23;;;;;;;24.62;15.30;99092.69;5099789;28;20137;-76
2022/03/26 05:50:29;;;;;;;25.30;13.20;;;;;;;24.71;15.43;99088.16;5101490;28;20063;-76
2022/03/26 05:52:55;;;;;;;23.90;12.27;;;;;;;25.07;15.44;99094.28;5105516;28;20114;-76
2022/03/26 05:55:22;;;;;;;28.05;14.25;;;;;;;25.05;15.63;99087.50;5109198;28;20057;-75
2022/03/26 05:57:48;;;;;;;29.95;13.52;;;;;;;25.07;15.45;99085.88;5101703;28;20544;-76
2022/03/26 06:00:14;;;;;;;29.13;14.70;;;;;;;25.04;15.99;99081.06;5099301;28;20027;-76
2022/03/26 06:02:42;;;;;;;29.55;14.25;;;;;;;24.89;16.04;99081.63;5110428;28;20027;-76
2022/03/26 06:05:08;;;;;;;28.05;15.20;;;;;;;24.81;16.01;99089.31;5104598;27;20031;-76
2022/03/26 06:07:34;;;;;;;28.60;13.88;;;;;;;25.01;16.15;99083.94;5105745;28;20035;-76
2022/03/26 06:10:01;;;;;;;23.05;12.90;;;;;;;25.56;15.83;99081.75;5104076;28;20016;-76
2022/03/26 06:12:27;;;;;;;24.63;12.50;;;;;;;26.07;15.53;99083.47;5103673;28;20473;-76
2022/03/26 06:14:53;;;;;;;27.85;14.32;;;;;;;26.44;15.25;99088.97;5098989;28;20031;-76
2022/03/26 06:17:19;;;;;;;40.42;17.63;;;;;;;25.94;16.08;99085.28;5102372;28;20040;-76
2022/03/26 06:19:46;;;;;;;31.75;15.98;;;;;;;25.98;15.72;99075.56;5098754;28;20078;-77
2022/03/26 06:22:12;;;;;;;32.22;15.55;;;;;;;26.50;15.35;99081.66;5101358;28;20164;-76
2022/03/26 06:24:39;;;;;;;30.75;15.98;;;;;;;26.87;15.45;99082.66;5099431;28;20036;-77
2022/03/26 06:27:06;;;;;;;31.27;16.25;;;;;;;26.42;15.60;99088.59;5101593;28;20400;-77
2022/03/26 06:29:33;;;;;;;44.88;21.75;;;;;;;26.24;15.82;99084.47;5108603;28;20024;-77
2022/03/26 06:32:01;;;;;;;40.95;17.75;;;;;;;26.25;16.21;99086.88;5103765;28;20036;-77
2022/03/26 06:34:28;;;;;;;33.80;15.82;;;;;;;26.86;15.89;99093.19;5102650;28;20046;-77
2022/03/26 06:36:54;;;;;;;35.60;15.13;;;;;;;27.16;15.32;99089.41;5110672;28;20035;-76
2022/03/26 06:39:20;;;;;;;29.02;15.05;;;;;;;27.53;15.43;99083.47;5107496;28;20746;-76
2022/03/26 06:41:46;;;;;;;26.13;13.73;;;;;;;27.82;14.93;99086.53;5101579;28;20047;-77
2022/03/26 06:44:13;;;;;;;27.52;12.82;;;;;;;28.13;14.54;99084.22;5103890;28;20061;-79
2022/03/26 06:46:40;;;;;;;27.30;13.80;;;;;;;28.38;14.41;99090.91;5107973;28;20044;-79
2022/03/26 06:49:08;;;;;;;28.35;14.30;;;;;;;28.51;14.35;99091.00;5107258;28;20024;-80
2022/03/26 06:51:35;;;;;;;27.90;14.30;;;;;;;28.23;14.14;99094.50;5107041;28;20048;-78
2022/03/26 06:54:01;;;;;;;25.67;13.10;;;;;;;28.26;14.15;99085.16;5106141;28;20053;-77
2022/03/26 06:56:28;;;;;;;26.80;10.90;;;;;;;28.42;13.98;99091.63;5106699;28;20028;-77
2022/03/26 06:58:55;;;;;;;26.95;12.13;;;;;;;28.68;13.89;99090.59;5106148;28;20027;-77
2022/03/26 07:01:21;;;;;;;18.48;10.65;;;;;;;28.52;13.55;99095.44;5106142;27;20047;-77
2022/03/26 07:03:48;;;;;;;22.83;11.80;;;;;;;28.39;13.91;99086.84;5109606;28;20036;-77
2022/03/26 07:06:16;;;;;;;20.20;10.70;;;;;;;28.44;14.20;99086.34;5105531;28;20411;-77
2022/03/26 07:08:42;;;;;;;17.83;10.07;;;;;;;28.75;13.78;99084.78;5102333;28;20027;-78
2022/03/26 07:11:09;;;;;;;19.23;10.48;;;;;;;28.87;13.70;99088.16;5106446;28;20058;-79
2022/03/26 07:13:35;;;;;;;25.08;12.05;;;;;;;29.10;13.53;99085.88;5106999;28;20028;-77
2022/03/26 07:16:01;;;;;;;34.33;14.68;;;;;;;27.74;13.61;99080.22;5107162;28;20031;-78
2022/03/26 07:18:27;;;;;;;22.38;10.68;;;;;;;28.24;14.17;99096.09;5113080;28;20063;-78
2022/03/26 07:20:58;;;;;;;18.67;10.30;;;;;;;27.80;14.52;99089.75;5108555;28;20085;-78
2022/03/26 07:23:25;;;;;;;23.48;12.10;;;;;;;27.68;14.31;99093.22;5111692;28;20038;-78
2022/03/26 07:25:51;;;;;;;23.88;11.45;;;;;;;27.99;13.87;99086.16;5111526;28;20504;-79
2022/03/26 07:28:17;;;;;;;27.00;13.30;;;;;;;27.57;14.47;99092.66;5110320;28;20400;-78
2022/03/26 07:30:43;;;;;;;25.08;12.70;;;;;;;27.02;15.33;99090.47;5108168;28;20055;-78
2022/03/26 07:33:09;;;;;;;25.23;10.20;;;;;;;27.29;14.39;99093.97;5109895;28;20035;-78
2022/03/26 07:35:35;;;;;;;21.60;10.55;;;;;;;27.79;14.26;99096.66;5111881;28;20496;-78
2022/03/26 07:38:01;;;;;;;20.30;10.50;;;;;;;28.11;13.88;99092.34;5109251;28;20023;-78
2022/03/26 07:40:29;;;;;;;20.33;11.57;;;;;;;28.55;13.69;99092.53;5107095;28;20031;-78
2022/03/26 07:42:55;;;;;;;16.98;10.40;;;;;;;28.87;13.42;99085.31;5111153;28;20489;-78
2022/03/26 07:45:21;;;;;;;18.60;9.95;;;;;;;28.97;13.61;99087.06;5112444;28;20593;-78
2022/03/26 07:47:47;;;;;;;16.83;9.60;;;;;;;28.79;13.52;99092.38;5106783;28;20043;-78
2022/03/26 07:50:13;;;;;;;17.17;9.80;;;;;;;29.34;13.45;99090.13;5111372;28;20044;-79
2022/03/26 07:52:41;;;;;;;19.77;10.30;;;;;;;29.11;13.39;99095.97;5110773;28;20040;-78
2022/03/26 07:55:08;;;;;;;24.27;10.25;;;;;;;29.04;13.67;99101.00;5108966;28;20041;-79
2022/03/26 07:57:34;;;;;;;16.90;9.23;;;;;;;28.88;14.15;99095.38;5104628;28;20051;-79
2022/03/26 08:00:01;;;;;;;23.77;13.20;;;;;;;28.67;13.88;99091.06;5112229;28;20023;-79
2022/03/26 08:02:27;;;;;;;27.48;13.25;;;;;;;28.16;14.37;99095.47;5112001;28;20061;-79
2022/03/26 08:04:53;;;;;;;20.65;10.38;;;;;;;25.94;16.48;99088.88;5111300;28;20679;-79
2022/03/26 08:07:21;;;;;;;27.90;13.75;;;;;;;26.12;16.16;99093.50;5109289;28;20039;-78
2022/03/26 08:09:48;;;;;;;29.52;15.93;;;;;;;25.63;16.37;99087.28;5109284;28;20069;-78
2022/03/26 08:12:14;;;;;;;24.38;13.63;;;;;;;24.86;16.95;99100.13;5107121;28;20126;-78
2022/03/26 08:14:40;;;;;;;25.48;14.45;;;;;;;25.76;16.81;99110.03;5106091;28;20063;-78
2022/03/26 08:17:06;;;;;;;32.15;16.50;;;;;;;25.14;16.81;99097.03;5111550;28;20062;-78
2022/03/26 08:19:34;;;;;;;36.40;15.70;;;;;;;26.07;15.93;99097.53;5111029;28;20036;-78
2022/03/26 08:22:01;;;;;;;32.38;14.25;;;;;;;26.01;16.15;99100.06;5106244;28;20468;-78
2022/03/26 08:24:27;;;;;;;31.85;16.48;;;;;;;26.78;15.65;99099.34;5110912;28;20063;-78
2022/03/26 08:26:54;;;;;;;30.40;16.35;;;;;;;26.99;15.37;99093.34;5106019;28;20062;-79
2022/03/26 08:29:20;;;;;;;25.35;15.00;;;;;;;27.17;15.33;99091.78;5111652;28;20034;-79
2022/03/26 08:31:46;;;;;;;26.83;15.07;;;;;;;26.88;15.40;99084.28;5106674;28;20545;-77
2022/03/26 08:34:12;;;;;;;28.92;14.98;;;;;;;26.71;15.70;99088.97;5098327;28;20032;-78
2022/03/26 08:36:38;;;;;;;25.92;13.30;;;;;;;26.74;16.06;99088.91;5104197;28;20067;-77
2022/03/26 08:39:04;;;;;;;25.58;14.52;;;;;;;26.50;15.97;99081.66;5103744;28;20028;-78
2022/03/26 08:41:31;;;;;;;27.10;13.95;;;;;;;25.48;16.96;99082.25;5105830;28;20515;-78
2022/03/26 08:43:57;;;;;;;25.67;13.32;;;;;;;26.48;16.63;99088.94;5106816;28;20039;-77
2022/03/26 08:46:24;;;;;;;25.25;15.27;;;;;;;26.91;16.20;99070.09;5108732;28;20124;-77
2022/03/26 08:48:51;;;;;;;24.70;13.52;;;;;;;27.46;15.73;99077.97;5108679;28;20040;-78
2022/03/26 08:51:18;;;;;;;23.83;11.63;;;;;;;26.95;16.19;99067.25;5109478;28;20400;-77
2022/03/26 08:53:45;;;;;;;19.10;11.70;;;;;;;26.23;17.26;99060.38;5109242;28;20152;-78
2022/03/26 08:56:12;;;;;;;25.80;12.30;;;;;;;26.77;16.27;99044.22;5108187;28;20035;-77
2022/03/26 08:58:38;;;;;;;24.20;13.35;;;;;;;26.01;17.30;99059.84;5106601;28;20059;-78
2022/03/26 09:01:07;;;;;;;24.15;11.80;;;;;;;26.22;17.31;99055.94;5106805;28;20064;-77
2022/03/26 09:03:37;;;;;;;28.45;14.10;;;;;;;26.47;16.94;99051.53;5107072;28;20070;-78
2022/03/26 09:06:07;;;;;;;23.27;10.63;;;;;;;27.31;16.29;99040.75;5107828;28;20459;-77
2022/03/26 09:08:36;;;;;;;21.40;12.30;;;;;;;28.20;15.68;99031.22;5105037;28;20036;-78
2022/03/26 09:11:04;;;;;;;22.58;12.00;;;;;;;26.69;16.46;99033.03;5106549;28;20358;-79
2022/03/26 09:13:31;;;;;;;22.67;10.05;;;;;;;25.49;17.93;99036.03;5105396;28;20027;-78
2022/03/26 09:15:58;;;;;;;27.23;11.90;;;;;;;25.93;18.03;99035.81;5106215;28;20030;-78
2022/03/26 09:18:25;;;;;;;23.50;10.52;;;;;;;27.58;16.60;99035.00;5103767;28;20028;-78
2022/03/26 09:20:51;;;;;;;26.33;13.13;;;;;;;26.69;16.81;99030.22;5106209;28;20040;-80
2022/03/26 09:23:18;;;;;;;24.77;12.98;;;;;;;25.47;18.30;99035.66;5109124;28;20488;-77
2022/03/26 09:25:44;;;;;;;24.85;12.80;;;;;;;25.24;18.71;99039.13;5102402;28;20084;-77
2022/03/26 09:28:10;;;;;;;19.55;11.43;;;;;;;25.80;18.47;99020.75;5105456;28;20028;-78
2022/03/26 09:30:36;;;;;;;19.33;10.77;;;;;;;27.31;16.91;99015.38;5104406;28;20106;-79
2022/03/26 09:33:03;;;;;;;17.85;10.50;;;;;;;28.57;15.63;99007.28;5108010;28;20019;-78
2022/03/26 09:35:29;;;;;;;19.95;11.07;;;;;;;29.01;15.46;99017.84;5105258;28;20039;-78
2022/03/26 09:37:56;;;;;;;22.10;12.93;;;;;;;27.13;16.53;99012.13;5108304;28;20089;-79
2022/03/26 09:40:23;;;;;;;23.13;11.32;;;;;;;26.19;17.54;99028.63;5107200;28;20081;-79
2022/03/26 09:42:51;;;;;;;19.27;9.93;;;;;;;25.54;18.36;99018.69;5106661;28;20114;-78
2022/03/26 09:45:18;;;;;;;23.90;12.10;;;;;;;25.96;18.26;99015.28;5103287;28;20045;-78
2022/03/26 09:47:44;;;;;;;22.40;11.10;;;;;;;25.96;18.12;99016.09;5107527;28;20031;-78
2022/03/26 09:50:12;;;;;;;19.83;9.27;;;;;;;27.28;17.42;99007.78;5108696;28;20077;-78
2022/03/26 09:52:38;;;;;;;17.00;10.35;;;;;;;28.32;15.99;99013.56;5106262;28;20115;-78
2022/03/26 09:55:06;;;;;;;19.50;8.60;;;;;;;28.25;15.43;99008.09;5107962;28;20518;-78
2022/03/26 09:57:32;;;;;;;24.90;12.15;;;;;;;26.91;16.91;99008.09;5099408;28;20059;-78
2022/03/26 09:59:58;;;;;;;14.50;8.60;;;;;;;26.86;17.23;99008.63;5101638;28;20028;-78
2022/03/26 10:02:25;;;;;;;18.33;9.52;;;;;;;28.22;16.29;98996.88;5101765;28;20036;-78
2022/03/26 10:04:52;;;;;;;16.70;9.52;;;;;;;27.56;16.23;98983.06;5102346;28;21690;-78
2022/03/26 10:07:28;;;;;;;14.25;8.13;;;;;;;28.59;15.89;98985.09;5109147;28;20091;-78
2022/03/26 10:09:55;;;;;;;15.05;8.32;;;;;;;28.41;15.20;98953.63;5101082;28;20039;-78
2022/03/26 10:12:25;;;;;;;14.32;9.13;;;;;;;27.25;16.27;98962.75;5106124;28;20039;-78
2022/03/26 10:14:59;;;;;;;14.07;7.65;;;;;;;28.28;15.66;98978.19;5107654;28;20059;-78
2022/03/26 10:17:29;;;;;;;16.67;8.50;;;;;;;26.49;17.34;98972.25;5099731;28;20042;-78
2022/03/26 10:20:15;;;;;;;13.50;9.18;;;;;;;27.04;16.51;98978.06;5108631;28;20035;-78
2022/03/26 10:22:43;;;;;;;13.93;8.60;;;;;;;27.63;16.21;98963.97;5108952;28;20054;-78
2022/03/26 10:25:22;;;;;;;16.35;8.73;;;;;;;27.43;16.34;98966.00;5104539;28;20032;-78
2022/03/26 10:27:50;;;;;;;14.98;8.10;;;;;;;26.95;16.39;98955.31;5107033;28;20523;-79
2022/03/26 10:32:38;;;;;;;12.88;7.93;;;;;;;27.50;15.86;98965.06;5107620;28;20031;-80
2022/03/26 10:33:20;;;;;;;13.25;9.10;;;;;;;28.39;15.00;98958.94;5101661;28;20527;-81
2022/03/26 10:35:57;;;;;;;9.80;6.15;;;;;;;26.81;16.64;98985.78;5102034;28;20031;-80
2022/03/26 10:38:34;;;;;;;13.77;7.45;;;;;;;26.23;17.06;98954.19;5106827;28;20068;-79
2022/03/26 10:41:02;;;;;;;16.50;7.72;;;;;;;26.31;16.96;98950.00;5110451;28;20031;-79
2022/03/26 10:43:28;;;;;;;18.10;7.65;;;;;;;27.76;16.01;98942.28;5104828;28;20111;-81
2022/03/26 10:45:58;;;;;;;13.77;7.43;;;;;;;29.17;14.96;98935.78;5109113;28;20071;-81
2022/03/26 10:48:26;;;;;;;22.10;9.07;;;;;;;28.21;15.54;98950.13;5105890;28;20114;-80
2022/03/26 10:51:05;;;;;;;18.08;8.25;;;;;;;28.54;15.63;98934.72;5108865;28;20091;-80
2022/03/26 10:53:36;;;;;;;15.00;7.80;;;;;;;27.22;16.40;98961.59;5111143;28;20055;-80
2022/03/26 10:56:04;;;;;;;17.17;9.27;;;;;;;25.96;17.38;98964.63;5108500;28;20039;-79
2022/03/26 10:58:35;;;;;;;15.75;9.15;;;;;;;27.01;16.41;98944.31;5104604;28;20028;-79
2022/03/26 11:01:02;;;;;;;15.02;8.57;;;;;;;26.30;16.93;98939.97;5110692;28;20117;-80
2022/03/26 11:03:29;;;;;;;16.48;8.68;;;;;;;27.33;16.35;98948.06;5109223;28;20043;-80
2022/03/26 11:05:57;;;;;;;16.38;8.07;;;;;;;28.06;15.66;98942.00;5110989;28;20040;-80
2022/03/26 11:08:24;;;;;;;16.73;8.77;;;;;;;28.27;15.68;98945.50;5110049;28;20035;-79
2022/03/26 11:10:55;;;;;;;16.83;8.32;;;;;;;27.56;16.18;98927.44;5104084;28;20036;-79
2022/03/26 11:13:23;;;;;;;;;;;;;;;27.25;16.23;98928.91;5107698;28;20031;-79
2022/03/26 11:15:54;;;;;;;21.10;11.38;;;;;;;28.24;15.36;98923.81;5105088;28;20292;-79
2022/03/26 11:18:20;;;;;;;;;;;;;;;27.92;15.39;98928.19;5107487;28;20031;-79